Flintville, Tennessee
Current Conditions -  °F | °C
As of 8:35 PM on Friday 24 Oct 2014 (Local Time) from KFYM Reporting Station
Clear Clear  
Wind Chill: 54°   Ceiling: Unl
Heat Index: 54°   Visibility: 10mi
Dew Point: 39°   Wind: 6mph
Humidity: 58%   Direction: 360°N
Pressure: 30.09"   Gusts: NA
Location:  35.06°N, 86.42°W
Report Text: KFYM 250135Z AUTO 36005KT 10SM CLR 12/04 A3009 RMK
Loading
Personal Weather Stations






























Interactive Weather Map
Tropical Storm Tracking
New forecast layout! Learn more

10-Day Weather Forecast

Advertisements
Track Severe Weather on mobile